createdAt,value
2019-04-28T00:00:35.435Z,6.20
2019-04-28T00:01:35.418Z,6.50
2019-04-28T00:02:35.418Z,6.10
2019-04-28T00:03:35.404Z,6.50
2019-04-28T00:04:35.403Z,6.30
2019-04-28T00:05:35.399Z,6.30
2019-04-28T00:06:35.357Z,6.80
2019-04-28T00:07:35.374Z,6.80
2019-04-28T00:08:35.382Z,6.90
2019-04-28T00:09:35.343Z,6.70
2019-04-28T00:10:35.333Z,6.60
2019-04-28T00:11:35.307Z,6.90
2019-04-28T00:12:35.301Z,7.30
2019-04-28T00:13:35.292Z,7.00
2019-04-28T00:14:35.295Z,6.90
2019-04-28T00:15:35.274Z,6.90
2019-04-28T00:16:35.287Z,7.30
2019-04-28T00:17:35.376Z,7.90
2019-04-28T00:18:35.251Z,7.10
2019-04-28T00:19:35.251Z,7.30
2019-04-28T00:20:35.219Z,7.70
2019-04-28T00:21:35.199Z,8.10
2019-04-28T00:22:35.185Z,8.00
2019-04-28T00:23:35.197Z,8.70
2019-04-28T00:24:35.175Z,8.90
2019-04-28T00:25:35.198Z,8.70
2019-04-28T00:26:35.164Z,8.00
2019-04-28T00:27:35.142Z,8.50
2019-04-28T00:28:35.152Z,8.50
2019-04-28T00:29:40.352Z,8.40
2019-04-28T00:30:36.122Z,8.90
2019-04-28T00:31:35.099Z,9.10
2019-04-28T00:32:35.112Z,8.30
2019-04-28T00:33:35.088Z,8.50
2019-04-28T00:34:35.068Z,8.70
2019-04-28T00:35:35.329Z,8.60
2019-04-28T00:36:35.055Z,9.30
2019-04-28T00:37:35.063Z,9.10
2019-04-28T00:38:35.039Z,9.30
2019-04-28T00:39:35.171Z,9.00
2019-04-28T00:40:35.001Z,8.90
2019-04-28T00:41:34.995Z,8.40
2019-04-28T00:42:34.987Z,9.00
2019-04-28T00:43:34.975Z,9.70
2019-04-28T00:44:34.970Z,10.80
2019-04-28T00:45:34.956Z,10.40
2019-04-28T00:46:34.983Z,10.30
2019-04-28T00:47:34.930Z,10.30
2019-04-28T00:48:34.917Z,10.80
2019-04-28T00:49:34.923Z,10.30
2019-04-28T00:50:34.899Z,11.00
2019-04-28T00:51:34.886Z,11.10
2019-04-28T00:52:34.910Z,10.70
2019-04-28T00:53:34.878Z,11.20
2019-04-28T00:54:34.866Z,10.60
2019-04-28T00:55:34.866Z,10.70
2019-04-28T00:56:34.919Z,10.50
2019-04-28T00:57:34.878Z,11.10
2019-04-28T00:58:34.814Z,10.60
2019-04-28T00:59:34.794Z,10.30
2019-04-28T01:00:34.796Z,10.90
2019-04-28T01:01:34.776Z,11.00
2019-04-28T01:02:34.754Z,10.90
2019-04-28T01:03:34.777Z,32.90
2019-04-28T01:04:34.743Z,14.40
2019-04-28T01:05:34.733Z,48.40
2019-04-28T01:06:34.723Z,19.20
2019-04-28T01:07:34.720Z,16.90
2019-04-28T01:08:34.737Z,17.00
2019-04-28T01:09:34.685Z,22.50
2019-04-28T01:10:34.687Z,15.60
2019-04-28T01:11:34.673Z,13.50
2019-04-28T01:12:34.667Z,12.60
2019-04-28T01:13:34.652Z,12.80
2019-04-28T01:14:34.752Z,12.70
2019-04-28T01:15:34.624Z,12.60
2019-04-28T01:16:34.625Z,11.40
2019-04-28T01:17:34.613Z,11.50
2019-04-28T01:18:34.592Z,11.90
2019-04-28T01:19:34.595Z,11.90
2019-04-28T01:20:34.598Z,13.10
2019-04-28T01:21:34.574Z,12.60
2019-04-28T01:22:34.541Z,12.00
2019-04-28T01:23:34.534Z,13.90
2019-04-28T01:24:34.529Z,11.50
2019-04-28T01:25:34.528Z,11.40
2019-04-28T01:26:34.529Z,10.90
2019-04-28T01:27:34.500Z,11.70
2019-04-28T01:28:34.475Z,11.50
2019-04-28T01:29:34.496Z,10.90
2019-04-28T01:30:34.503Z,10.70
2019-04-28T01:31:34.476Z,10.20
2019-04-28T01:32:34.447Z,11.20
2019-04-28T01:33:34.442Z,11.00
2019-04-28T01:34:34.422Z,11.40
2019-04-28T01:35:34.413Z,11.30
2019-04-28T01:36:34.426Z,11.00
2019-04-28T01:37:34.388Z,11.00
2019-04-28T01:38:34.370Z,10.90
2019-04-28T01:39:34.389Z,10.40
2019-04-28T01:40:34.351Z,10.30
2019-04-28T01:41:34.350Z,11.00
2019-04-28T01:42:34.386Z,11.60
2019-04-28T01:43:34.353Z,12.20
2019-04-28T01:44:34.301Z,10.90
2019-04-28T01:45:34.346Z,11.70
2019-04-28T01:46:34.315Z,11.00
2019-04-28T01:47:34.271Z,10.80
2019-04-28T01:48:34.278Z,11.30
2019-04-28T01:49:34.253Z,11.30
2019-04-28T01:50:34.241Z,12.00
2019-04-28T01:51:34.243Z,12.40
2019-04-28T01:52:34.241Z,12.50
2019-04-28T01:53:34.215Z,12.00
2019-04-28T01:54:34.195Z,12.50
2019-04-28T01:55:34.227Z,10.60
2019-04-28T01:56:34.197Z,12.20
2019-04-28T01:57:34.174Z,12.50
2019-04-28T01:58:34.164Z,30.30
2019-04-28T01:59:34.150Z,27.90
2019-04-28T02:00:34.159Z,24.80
2019-04-28T02:01:34.142Z,12.90
2019-04-28T02:02:34.170Z,14.90
2019-04-28T02:03:34.138Z,14.40
2019-04-28T02:04:34.132Z,13.50
2019-04-28T02:05:34.108Z,13.00
2019-04-28T02:06:34.093Z,16.00
2019-04-28T02:07:34.054Z,14.40
2019-04-28T02:08:43.092Z,14.80
2019-04-28T02:09:34.041Z,11.80
2019-04-28T02:10:34.029Z,12.60
2019-04-28T02:11:34.017Z,14.70
2019-04-28T02:12:34.017Z,13.10
2019-04-28T02:13:34.056Z,14.30
2019-04-28T02:14:34.001Z,12.20
2019-04-28T02:15:33.975Z,16.00
2019-04-28T02:16:33.999Z,13.70
2019-04-28T02:17:33.969Z,19.50
2019-04-28T02:18:33.981Z,13.30
2019-04-28T02:19:33.940Z,12.70
2019-04-28T02:20:34.561Z,15.80
2019-04-28T02:21:33.901Z,20.90
2019-04-28T02:22:34.560Z,15.30
2019-04-28T02:23:33.905Z,11.30
2019-04-28T02:24:33.934Z,15.60
2019-04-28T02:25:33.890Z,15.00
2019-04-28T02:26:33.873Z,11.80
2019-04-28T02:27:34.530Z,14.00
2019-04-28T02:28:33.866Z,18.00
2019-04-28T02:29:33.915Z,22.50
2019-04-28T02:30:45.546Z,14.70
2019-04-28T02:31:34.850Z,12.40
2019-04-28T02:32:33.847Z,12.40
2019-04-28T02:33:33.845Z,13.20
2019-04-28T02:34:33.821Z,12.80
2019-04-28T02:35:34.361Z,10.90
2019-04-28T02:36:33.759Z,11.70
2019-04-28T02:37:33.760Z,13.60
2019-04-28T02:38:34.291Z,13.10
2019-04-28T02:39:33.736Z,11.60
2019-04-28T02:40:33.725Z,10.60
2019-04-28T02:41:33.949Z,12.20
2019-04-28T02:42:34.535Z,11.10
2019-04-28T02:43:33.698Z,10.20
2019-04-28T02:44:35.231Z,10.40
2019-04-28T02:45:33.693Z,11.10
2019-04-28T02:46:33.676Z,11.40
2019-04-28T02:47:34.125Z,12.60
2019-04-28T02:48:34.542Z,11.20
2019-04-28T02:49:33.767Z,11.20
2019-04-28T02:50:34.539Z,10.50
2019-04-28T02:51:33.636Z,11.40
2019-04-28T02:52:33.578Z,11.20
2019-04-28T02:53:33.949Z,10.70
2019-04-28T02:54:33.573Z,10.60
2019-04-28T02:55:33.557Z,10.20
2019-04-28T02:56:33.567Z,10.90
2019-04-28T02:57:33.521Z,10.60
2019-04-28T02:58:33.565Z,11.60
2019-04-28T02:59:33.603Z,10.70
2019-04-28T03:00:33.499Z,9.70
2019-04-28T03:01:33.511Z,10.30
2019-04-28T03:02:33.491Z,9.90
2019-04-28T03:03:34.127Z,10.10
2019-04-28T03:04:33.473Z,12.10
2019-04-28T03:05:33.837Z,10.40
2019-04-28T03:06:42.150Z,9.70
2019-04-28T03:07:33.467Z,9.60
2019-04-28T03:08:33.436Z,10.30
2019-04-28T03:09:33.407Z,9.60
2019-04-28T03:10:33.424Z,9.60
2019-04-28T03:11:33.421Z,9.50
2019-04-28T03:12:33.357Z,10.20
2019-04-28T03:13:33.361Z,10.20
2019-04-28T03:14:33.381Z,9.70
2019-04-28T03:15:33.373Z,9.70
2019-04-28T03:16:33.418Z,9.10
2019-04-28T03:17:33.468Z,9.50
2019-04-28T03:18:33.314Z,9.30
2019-04-28T03:19:34.148Z,9.40
2019-04-28T03:20:33.284Z,9.30
2019-04-28T03:21:33.286Z,11.20
2019-04-28T03:22:33.784Z,10.20
2019-04-28T03:23:33.253Z,10.70
2019-04-28T03:24:33.265Z,10.50
2019-04-28T03:25:33.467Z,11.50
2019-04-28T03:26:33.248Z,11.10
2019-04-28T03:27:33.202Z,10.50
2019-04-28T03:28:33.601Z,10.70
2019-04-28T03:29:33.193Z,12.80
2019-04-28T03:30:34.062Z,10.90
2019-04-28T03:32:01.181Z,12.60
2019-04-28T03:32:45.485Z,13.70
2019-04-28T03:33:41.156Z,11.80
2019-04-28T03:34:36.600Z,13.20
2019-04-28T03:35:33.117Z,11.60
2019-04-28T03:36:33.641Z,12.10
2019-04-28T03:37:33.121Z,12.50
2019-04-28T03:38:33.156Z,11.90
2019-04-28T03:39:33.121Z,12.40
2019-04-28T03:40:33.752Z,12.30
2019-04-28T03:41:33.123Z,12.20
2019-04-28T03:42:33.044Z,12.40
2019-04-28T03:43:33.034Z,12.10
2019-04-28T03:44:33.850Z,12.30
2019-04-28T03:45:33.032Z,12.50
2019-04-28T03:46:33.010Z,13.40
2019-04-28T03:47:33.045Z,13.40
2019-04-28T03:48:33.882Z,13.20
2019-04-28T03:49:33.051Z,14.00
2019-04-28T03:50:32.956Z,13.40
2019-04-28T03:51:32.954Z,14.40
2019-04-28T03:52:32.940Z,13.20
2019-04-28T03:53:32.925Z,14.10
2019-04-28T03:54:32.906Z,13.30
2019-04-28T03:55:34.947Z,13.90
2019-04-28T03:56:32.927Z,13.30
2019-04-28T03:57:32.884Z,12.70
2019-04-28T03:58:32.867Z,13.20
2019-04-28T03:59:32.869Z,12.70
2019-04-28T04:00:32.838Z,12.30
2019-04-28T04:01:32.845Z,12.50
2019-04-28T04:02:32.824Z,12.50
2019-04-28T04:03:32.829Z,12.30
2019-04-28T04:04:32.820Z,12.00
2019-04-28T04:05:32.826Z,12.10
2019-04-28T04:06:32.791Z,11.60
2019-04-28T04:07:32.805Z,11.70
2019-04-28T04:08:32.767Z,11.70
2019-04-28T04:09:32.762Z,12.20
2019-04-28T04:10:32.753Z,12.20
2019-04-28T04:11:32.747Z,12.50
2019-04-28T04:12:32.721Z,12.10
2019-04-28T04:13:33.142Z,12.80
2019-04-28T04:14:32.715Z,12.20
2019-04-28T04:15:32.709Z,13.10
2019-04-28T04:16:32.680Z,12.50
2019-04-28T04:17:33.643Z,13.80
2019-04-28T04:18:32.659Z,13.70
2019-04-28T04:19:32.643Z,13.30
2019-04-28T04:20:32.645Z,13.50
2019-04-28T04:21:32.645Z,13.40
2019-04-28T04:22:32.630Z,14.10
2019-04-28T04:23:32.604Z,14.40
2019-04-28T04:24:32.595Z,13.80
2019-04-28T04:25:32.573Z,13.80
2019-04-28T04:26:33.543Z,14.70
2019-04-28T04:27:32.557Z,14.40
2019-04-28T04:28:34.603Z,14.90
2019-04-28T04:29:32.611Z,14.70
2019-04-28T04:30:32.538Z,14.80
2019-04-28T04:31:32.523Z,14.80
2019-04-28T04:32:33.874Z,14.70
2019-04-28T04:33:32.499Z,14.90
2019-04-28T04:34:32.506Z,15.20
2019-04-28T04:35:32.501Z,16.00
2019-04-28T04:36:32.479Z,16.00
2019-04-28T04:37:32.497Z,16.40
2019-04-28T04:38:32.499Z,16.00
2019-04-28T04:39:32.478Z,15.90
2019-04-28T04:40:32.462Z,15.70
2019-04-28T04:41:33.131Z,15.50
2019-04-28T04:42:32.440Z,15.90
2019-04-28T04:43:32.502Z,16.20
2019-04-28T04:44:32.386Z,15.40
2019-04-28T04:45:32.397Z,15.80
2019-04-28T04:46:32.386Z,15.50
2019-04-28T04:47:32.972Z,15.60
2019-04-28T04:48:32.358Z,15.80
2019-04-28T04:49:32.364Z,15.00
2019-04-28T04:50:32.319Z,14.70
2019-04-28T04:51:32.335Z,15.90
2019-04-28T04:52:32.310Z,14.80
2019-04-28T04:53:32.331Z,14.60
2019-04-28T04:54:33.669Z,15.30
2019-04-28T04:55:32.273Z,14.80
2019-04-28T04:56:32.295Z,16.50
2019-04-28T04:57:32.707Z,15.50
2019-04-28T04:58:32.353Z,15.70
2019-04-28T04:59:32.280Z,15.90
2019-04-28T05:00:32.223Z,17.20
2019-04-28T05:01:32.234Z,15.90
2019-04-28T05:02:33.106Z,16.70
2019-04-28T05:03:33.098Z,15.90
2019-04-28T05:04:32.261Z,15.00
2019-04-28T05:05:32.190Z,15.00
2019-04-28T05:06:32.171Z,14.80
2019-04-28T05:07:32.178Z,14.70
2019-04-28T05:08:32.115Z,15.10
2019-04-28T05:09:32.146Z,15.20
2019-04-28T05:10:32.141Z,15.10
2019-04-28T05:11:32.152Z,15.90
2019-04-28T05:12:32.679Z,14.80
2019-04-28T05:13:32.079Z,15.60
2019-04-28T05:14:32.128Z,15.10
2019-04-28T05:15:32.067Z,16.20
2019-04-28T05:16:32.052Z,18.50
2019-04-28T05:17:32.112Z,17.10
2019-04-28T05:18:32.056Z,15.10
2019-04-28T05:19:32.048Z,14.40
2019-04-28T05:20:32.002Z,14.70
2019-04-28T05:21:33.480Z,16.00
2019-04-28T05:22:31.990Z,14.50
2019-04-28T05:23:31.974Z,14.20
2019-04-28T05:24:31.993Z,15.00
2019-04-28T05:25:32.614Z,14.10
2019-04-28T05:26:31.950Z,13.50
2019-04-28T05:27:32.512Z,13.70
2019-04-28T05:28:36.462Z,13.80
2019-04-28T05:29:31.927Z,13.50
2019-04-28T05:30:34.958Z,13.20
2019-04-28T05:31:32.912Z,13.50
2019-04-28T05:32:42.070Z,13.10
2019-04-28T05:33:34.046Z,13.20
2019-04-28T05:34:31.950Z,12.30
2019-04-28T05:35:31.863Z,12.50
2019-04-28T05:36:40.763Z,12.20
2019-04-28T05:37:32.855Z,12.50
2019-04-28T05:38:31.842Z,12.30
2019-04-28T05:39:31.824Z,12.60
2019-04-28T05:40:31.817Z,12.90
2019-04-28T05:41:31.802Z,13.70
2019-04-28T05:42:31.800Z,12.80
2019-04-28T05:43:31.811Z,12.90
2019-04-28T05:44:32.165Z,12.80
2019-04-28T05:45:32.322Z,12.60
2019-04-28T05:46:31.739Z,12.50
2019-04-28T05:47:31.735Z,13.20
2019-04-28T05:48:32.658Z,13.40
2019-04-28T05:49:31.814Z,13.10
2019-04-28T05:50:31.707Z,12.30
2019-04-28T05:51:32.612Z,13.00
2019-04-28T05:52:31.718Z,14.90
2019-04-28T05:53:31.655Z,12.40
2019-04-28T05:54:31.698Z,12.50
2019-04-28T05:55:31.662Z,13.00
2019-04-28T05:56:31.643Z,13.10
2019-04-28T05:57:31.614Z,12.80
2019-04-28T05:58:31.625Z,16.00
2019-04-28T05:59:31.618Z,13.60
2019-04-28T06:00:31.616Z,13.70
2019-04-28T06:01:31.641Z,12.50
2019-04-28T06:02:31.577Z,13.30
2019-04-28T06:03:31.575Z,12.60
2019-04-28T06:04:31.535Z,12.70
2019-04-28T06:05:31.897Z,13.10
2019-04-28T06:06:31.529Z,13.10
2019-04-28T06:07:31.515Z,12.80
2019-04-28T06:08:31.505Z,13.40
2019-04-28T06:09:31.537Z,14.10
2019-04-28T06:10:31.463Z,11.80
2019-04-28T06:11:31.459Z,13.20
2019-04-28T06:12:31.978Z,12.50
2019-04-28T06:13:32.108Z,12.10
2019-04-28T06:14:31.471Z,11.80
2019-04-28T06:15:31.440Z,14.10
2019-04-28T06:16:31.409Z,11.80
2019-04-28T06:17:31.399Z,11.80
2019-04-28T06:18:31.447Z,14.00
2019-04-28T06:19:31.397Z,13.10
2019-04-28T06:20:31.386Z,13.40
2019-04-28T06:21:31.364Z,15.50
2019-04-28T06:22:31.375Z,11.00
2019-04-28T06:23:31.393Z,11.40
2019-04-28T06:24:32.119Z,12.30
2019-04-28T06:25:31.336Z,11.50
2019-04-28T06:26:31.306Z,12.20
2019-04-28T06:27:32.752Z,12.00
2019-04-28T06:28:31.279Z,12.20
2019-04-28T06:29:31.280Z,12.10
2019-04-28T06:30:31.269Z,13.10
2019-04-28T06:31:31.237Z,13.40
2019-04-28T06:32:31.227Z,13.40
2019-04-28T06:33:31.210Z,12.90
2019-04-28T06:34:31.227Z,12.40
2019-04-28T06:35:31.192Z,12.10
2019-04-28T06:36:31.192Z,13.70
2019-04-28T06:37:31.175Z,14.60
2019-04-28T06:38:31.180Z,15.50
2019-04-28T06:39:31.164Z,19.60
2019-04-28T06:40:31.146Z,19.80
2019-04-28T06:41:31.165Z,21.50
2019-04-28T06:42:31.145Z,28.00
2019-04-28T06:43:31.109Z,30.10
2019-04-28T06:44:31.099Z,16.00
2019-04-28T06:45:31.092Z,19.30
2019-04-28T06:46:31.121Z,18.10
2019-04-28T06:47:31.127Z,17.70
2019-04-28T06:48:31.101Z,18.60
2019-04-28T06:49:31.085Z,17.50
2019-04-28T06:50:31.110Z,16.10
2019-04-28T06:51:31.052Z,13.60
2019-04-28T06:52:31.076Z,16.70
2019-04-28T06:53:31.052Z,14.10
2019-04-28T06:54:31.690Z,15.00
2019-04-28T06:55:30.978Z,14.70
2019-04-28T06:56:31.620Z,14.10
2019-04-28T06:57:31.006Z,14.10
2019-04-28T06:58:30.987Z,14.40
2019-04-28T06:59:31.008Z,13.60
2019-04-28T07:00:30.943Z,13.40
2019-04-28T07:01:31.046Z,13.10
2019-04-28T07:02:30.990Z,13.70
2019-04-28T07:03:30.926Z,13.20
2019-04-28T07:04:30.904Z,13.60
2019-04-28T07:05:30.907Z,13.40
2019-04-28T07:06:30.867Z,12.80
2019-04-28T07:07:30.870Z,13.20
2019-04-28T07:08:30.861Z,12.60
2019-04-28T07:09:30.927Z,12.30
2019-04-28T07:10:30.869Z,12.40
2019-04-28T07:11:30.851Z,12.70
2019-04-28T07:12:30.805Z,12.50
2019-04-28T07:13:30.810Z,12.20
2019-04-28T07:14:30.798Z,12.40
2019-04-28T07:15:30.848Z,12.10
2019-04-28T07:16:30.788Z,12.30
2019-04-28T07:17:30.750Z,11.80
2019-04-28T07:18:30.762Z,11.90
2019-04-28T07:19:33.393Z,11.90
2019-04-28T07:20:30.750Z,12.20
2019-04-28T07:21:30.729Z,12.20
2019-04-28T07:22:30.693Z,12.30
2019-04-28T07:23:30.684Z,11.80
2019-04-28T07:24:30.694Z,11.40
2019-04-28T07:25:30.682Z,11.40
2019-04-28T07:26:30.685Z,10.90
2019-04-28T07:27:30.697Z,11.10
2019-04-28T07:28:31.622Z,11.20
2019-04-28T07:29:31.623Z,11.40
2019-04-28T07:30:30.630Z,10.50
2019-04-28T07:31:39.224Z,10.20
2019-04-28T07:32:39.795Z,10.20
2019-04-28T07:33:39.792Z,10.70
2019-04-28T07:34:39.330Z,10.10
2019-04-28T07:35:38.890Z,10.20
2019-04-28T07:36:39.419Z,9.90
2019-04-28T07:37:40.984Z,9.70
2019-04-28T07:38:30.581Z,9.90
2019-04-28T07:39:39.985Z,8.60
2019-04-28T07:40:31.411Z,8.90
2019-04-28T07:41:30.509Z,8.20
2019-04-28T07:42:30.487Z,8.50
2019-04-28T07:43:30.465Z,8.40
2019-04-28T07:44:30.459Z,8.20
2019-04-28T07:45:30.472Z,8.80
2019-04-28T07:46:31.412Z,8.10
2019-04-28T07:47:30.440Z,8.30
2019-04-28T07:48:30.429Z,8.40
2019-04-28T07:49:30.403Z,8.10
2019-04-28T07:50:30.420Z,8.80
2019-04-28T07:51:30.383Z,8.60
2019-04-28T07:52:30.425Z,8.40
2019-04-28T07:53:30.405Z,7.90
2019-04-28T07:54:30.437Z,8.70
2019-04-28T07:55:30.606Z,7.70
2019-04-28T07:56:30.391Z,7.90
2019-04-28T07:57:30.350Z,8.30
2019-04-28T07:58:30.445Z,8.10
2019-04-28T07:59:30.304Z,8.20
2019-04-28T08:00:30.340Z,8.10
2019-04-28T08:01:30.303Z,9.50
2019-04-28T08:02:30.302Z,8.70
2019-04-28T08:03:30.256Z,8.80
2019-04-28T08:04:30.331Z,8.70
2019-04-28T08:05:30.313Z,8.90
2019-04-28T08:06:30.292Z,8.60
2019-04-28T08:07:30.223Z,9.00
2019-04-28T08:08:30.265Z,8.60
2019-04-28T08:09:30.211Z,8.60
2019-04-28T08:11:39.803Z,8.10
2019-04-28T08:12:39.807Z,8.40
2019-04-28T08:13:39.814Z,11.70
2019-04-28T08:14:39.795Z,8.30
2019-04-28T08:15:39.786Z,8.80
2019-04-28T08:16:39.764Z,8.10
2019-04-28T08:17:39.759Z,8.30
2019-04-28T08:18:39.735Z,8.40
2019-04-28T08:19:39.746Z,7.70
2019-04-28T08:20:39.756Z,6.70
2019-04-28T08:21:39.717Z,7.40
2019-04-28T08:22:39.700Z,6.10
2019-04-28T08:23:47.010Z,6.20
2019-04-28T08:24:40.664Z,6.30
2019-04-28T08:25:39.671Z,6.50
2019-04-28T08:26:39.654Z,6.10
2019-04-28T08:27:39.668Z,6.30
2019-04-28T08:28:39.656Z,6.30
2019-04-28T08:29:39.644Z,7.50
2019-04-28T08:30:39.625Z,7.50
2019-04-28T08:31:39.643Z,8.10
2019-04-28T08:32:39.577Z,7.80
2019-04-28T08:33:39.576Z,6.80
2019-04-28T08:34:39.589Z,7.10
2019-04-28T08:35:39.559Z,7.10
2019-04-28T08:36:39.548Z,6.90
2019-04-28T08:37:39.554Z,7.30
2019-04-28T08:38:39.525Z,7.30
2019-04-28T08:39:39.518Z,8.00
2019-04-28T08:40:39.506Z,8.10
2019-04-28T08:41:39.495Z,7.40
2019-04-28T08:42:39.599Z,8.70
2019-04-28T08:43:39.489Z,8.00
2019-04-28T08:44:39.463Z,9.70
2019-04-28T08:45:39.455Z,9.00
2019-04-28T08:46:39.435Z,8.90
2019-04-28T08:47:39.433Z,8.10
2019-04-28T08:48:39.431Z,7.90
2019-04-28T08:49:39.406Z,9.70
2019-04-28T08:50:39.391Z,8.80
2019-04-28T08:51:39.396Z,7.90
2019-04-28T08:52:39.392Z,8.80
2019-04-28T08:53:39.420Z,8.30
2019-04-28T08:54:39.369Z,7.40
2019-04-28T08:55:39.425Z,11.10
2019-04-28T08:56:39.360Z,7.80
2019-04-28T08:57:39.463Z,9.30
2019-04-28T08:58:39.327Z,7.20
2019-04-28T08:59:39.296Z,6.80
2019-04-28T09:00:39.361Z,6.70
2019-04-28T09:01:39.268Z,7.80
2019-04-28T09:02:39.305Z,6.80
2019-04-28T09:03:39.340Z,7.00
2019-04-28T09:04:39.304Z,6.70
2019-04-28T09:05:39.757Z,8.10
2019-04-28T09:06:39.231Z,7.40
2019-04-28T09:07:39.224Z,6.80
2019-04-28T09:08:39.221Z,7.10
2019-04-28T09:09:39.205Z,7.30
2019-04-28T09:10:39.173Z,6.80
2019-04-28T09:11:39.172Z,6.60
2019-04-28T09:12:39.158Z,6.90
2019-04-28T09:13:39.152Z,7.30
2019-04-28T09:14:39.167Z,6.40
2019-04-28T09:15:39.125Z,8.70
2019-04-28T09:16:39.125Z,6.70
2019-04-28T09:17:39.103Z,6.80
2019-04-28T09:18:39.092Z,7.60
2019-04-28T09:19:39.146Z,6.50
2019-04-28T09:20:39.151Z,7.60
2019-04-28T09:21:39.617Z,6.70
2019-04-28T09:22:39.045Z,6.70
2019-04-28T09:23:39.041Z,8.70
2019-04-28T09:24:39.050Z,8.10
2019-04-28T09:25:39.025Z,6.60
2019-04-28T09:26:39.043Z,6.60
2019-04-28T09:27:39.002Z,8.70
2019-04-28T09:28:39.007Z,6.80
2019-04-28T09:29:38.978Z,7.40
2019-04-28T09:30:38.981Z,6.60
2019-04-28T09:31:38.958Z,7.50
2019-04-28T09:32:38.959Z,9.50
2019-04-28T09:33:38.928Z,6.40
2019-04-28T09:34:39.040Z,6.70
2019-04-28T09:35:38.916Z,6.20
2019-04-28T09:36:38.915Z,9.90
2019-04-28T09:37:38.883Z,6.40
2019-04-28T09:38:38.892Z,9.90
2019-04-28T09:39:38.867Z,7.80
2019-04-28T09:40:38.866Z,7.60
2019-04-28T09:41:38.859Z,6.10
2019-04-28T09:42:38.835Z,5.70
2019-04-28T09:43:38.831Z,7.20
2019-04-28T09:44:38.839Z,5.70
2019-04-28T09:45:38.800Z,6.10
2019-04-28T09:46:38.808Z,4.90
2019-04-28T09:47:38.799Z,5.30
2019-04-28T09:48:38.765Z,5.10
2019-04-28T09:49:38.762Z,6.20
2019-04-28T09:50:38.745Z,5.80
2019-04-28T09:51:38.755Z,7.10
2019-04-28T09:52:38.803Z,5.20
2019-04-28T09:53:38.730Z,5.10
2019-04-28T09:54:38.744Z,5.40
2019-04-28T09:55:38.706Z,5.50
2019-04-28T09:56:38.694Z,5.00
2019-04-28T09:57:38.687Z,7.50
2019-04-28T09:58:38.701Z,6.40
2019-04-28T09:59:38.662Z,5.40
2019-04-28T10:00:38.638Z,5.80
2019-04-28T10:01:38.622Z,5.10
2019-04-28T10:02:38.618Z,4.90
2019-04-28T10:03:38.647Z,5.10
2019-04-28T10:04:41.660Z,6.00
2019-04-28T10:05:38.610Z,4.90
2019-04-28T10:06:38.573Z,5.60
2019-04-28T10:07:38.563Z,4.00
2019-04-28T10:08:38.568Z,4.90
2019-04-28T10:09:38.550Z,5.50
2019-04-28T10:10:38.535Z,4.90
2019-04-28T10:11:38.527Z,4.40
2019-04-28T10:12:38.533Z,4.80
2019-04-28T10:13:38.527Z,4.50
2019-04-28T10:14:38.483Z,5.50
2019-04-28T10:15:38.480Z,5.00
2019-04-28T10:16:38.476Z,4.70
2019-04-28T10:17:38.476Z,4.20
2019-04-28T10:18:38.487Z,4.30
2019-04-28T10:19:38.425Z,6.10
2019-04-28T10:20:38.437Z,5.60
2019-04-28T10:21:38.411Z,5.20
2019-04-28T10:22:38.414Z,5.20
2019-04-28T10:23:38.388Z,4.30
2019-04-28T10:24:38.411Z,4.50
2019-04-28T10:25:38.400Z,3.90
2019-04-28T10:26:38.358Z,3.50
2019-04-28T10:27:38.352Z,4.10
2019-04-28T10:28:38.357Z,5.20
2019-04-28T10:29:38.367Z,3.80
2019-04-28T10:30:38.311Z,4.20
2019-04-28T10:31:38.337Z,4.10
2019-04-28T10:32:38.306Z,3.40
2019-04-28T10:33:38.284Z,4.30
2019-04-28T10:34:38.275Z,4.10
2019-04-28T10:35:38.279Z,3.70
2019-04-28T10:36:38.327Z,4.10
2019-04-28T10:37:38.251Z,4.40
2019-04-28T10:38:38.226Z,3.60
2019-04-28T10:39:38.243Z,4.80
2019-04-28T10:40:38.220Z,3.80
2019-04-28T10:41:38.214Z,3.90
2019-04-28T10:42:38.200Z,3.90
2019-04-28T10:43:38.177Z,4.00
2019-04-28T10:44:38.152Z,4.30
2019-04-28T10:45:38.174Z,4.60
2019-04-28T10:46:38.155Z,4.40
2019-04-28T10:47:38.151Z,5.70
2019-04-28T10:48:38.112Z,4.20
2019-04-28T10:49:38.131Z,4.70
2019-04-28T10:50:38.116Z,4.50
2019-04-28T10:51:38.111Z,4.30
2019-04-28T10:52:38.116Z,3.60
2019-04-28T10:53:38.095Z,3.90
2019-04-28T10:54:38.107Z,4.60
2019-04-28T10:55:38.065Z,3.70
2019-04-28T10:56:38.042Z,5.30
2019-04-28T10:57:38.036Z,4.90
2019-04-28T10:58:38.037Z,3.90
2019-04-28T10:59:38.020Z,5.00
2019-04-28T11:00:38.031Z,3.40
2019-04-28T11:01:37.976Z,4.20
2019-04-28T11:02:37.979Z,3.90
2019-04-28T11:03:37.962Z,4.30
2019-04-28T11:04:37.993Z,5.00
2019-04-28T11:05:37.983Z,4.40
2019-04-28T11:06:38.856Z,3.60
2019-04-28T11:07:37.960Z,4.20
2019-04-28T11:08:37.933Z,3.80
2019-04-28T11:09:37.944Z,4.90
2019-04-28T11:10:39.124Z,4.30
2019-04-28T11:11:37.888Z,4.00
2019-04-28T11:12:37.865Z,3.40
2019-04-28T11:13:37.864Z,4.40
2019-04-28T11:14:37.867Z,3.80
2019-04-28T11:15:37.890Z,3.90
2019-04-28T11:16:37.952Z,4.30
2019-04-28T11:17:37.844Z,4.60
2019-04-28T11:18:37.791Z,4.10
2019-04-28T11:19:37.787Z,4.60
2019-04-28T11:20:39.656Z,3.90
2019-04-28T11:21:37.816Z,3.40
2019-04-28T11:22:37.772Z,3.70
2019-04-28T11:23:37.997Z,5.30
2019-04-28T11:24:37.739Z,4.80
2019-04-28T11:25:37.728Z,3.80
2019-04-28T11:26:37.731Z,3.60
2019-04-28T11:27:37.723Z,3.40
2019-04-28T11:28:38.824Z,3.90
2019-04-28T11:29:37.685Z,5.80
2019-04-28T11:30:37.670Z,3.40
2019-04-28T11:31:37.680Z,4.50
2019-04-28T11:32:37.675Z,4.60
2019-04-28T11:33:37.691Z,5.30
2019-04-28T11:34:37.806Z,6.70
2019-04-28T11:35:37.626Z,6.60
2019-04-28T11:36:37.629Z,4.40
2019-04-28T11:37:37.608Z,3.30
2019-04-28T11:38:37.716Z,3.60
2019-04-28T11:39:37.592Z,3.10
2019-04-28T11:40:37.577Z,3.90
2019-04-28T11:41:37.620Z,3.40
2019-04-28T11:42:37.547Z,2.90
2019-04-28T11:43:37.537Z,2.50
2019-04-28T11:44:37.546Z,2.90
2019-04-28T11:45:37.529Z,3.50
2019-04-28T11:46:37.683Z,3.50
2019-04-28T11:47:37.500Z,3.10
2019-04-28T11:48:37.483Z,4.00
2019-04-28T11:49:37.481Z,2.60
2019-04-28T11:50:37.463Z,3.00
2019-04-28T11:51:37.879Z,2.40
2019-04-28T11:52:38.532Z,3.30
2019-04-28T11:53:37.478Z,3.60
2019-04-28T11:54:37.428Z,2.80
2019-04-28T11:55:37.430Z,2.80
2019-04-28T11:56:41.482Z,2.90
2019-04-28T11:57:37.409Z,3.00
2019-04-28T11:58:37.378Z,2.50
2019-04-28T11:59:37.401Z,2.60
2019-04-28T12:00:37.413Z,3.30
2019-04-28T12:01:37.444Z,2.90
2019-04-28T12:02:37.337Z,3.40
2019-04-28T12:03:37.341Z,3.00
2019-04-28T12:04:37.331Z,2.10
2019-04-28T12:05:38.495Z,3.00
2019-04-28T12:06:37.298Z,3.00
2019-04-28T12:07:37.270Z,2.40
2019-04-28T12:08:37.302Z,2.70
2019-04-28T12:09:37.261Z,2.90
2019-04-28T12:10:37.236Z,2.60
2019-04-28T12:11:37.227Z,2.50
2019-04-28T12:12:37.369Z,2.10
2019-04-28T12:13:37.221Z,2.00
2019-04-28T12:14:37.231Z,3.00
2019-04-28T12:15:37.200Z,1.80
2019-04-28T12:16:37.182Z,3.30
2019-04-28T12:17:37.365Z,2.00
2019-04-28T12:18:37.332Z,2.00
2019-04-28T12:19:37.169Z,2.80
2019-04-28T12:20:37.161Z,2.70
2019-04-28T12:21:37.128Z,2.60
2019-04-28T12:22:37.116Z,3.30
2019-04-28T12:23:37.127Z,3.20
2019-04-28T12:24:37.144Z,3.40
2019-04-28T12:25:37.071Z,2.20
2019-04-28T12:26:37.099Z,2.20
2019-04-28T12:27:37.071Z,2.10
2019-04-28T12:28:37.067Z,2.20
2019-04-28T12:29:37.083Z,2.50
2019-04-28T12:30:37.058Z,2.30
2019-04-28T12:31:37.031Z,2.10
2019-04-28T12:32:37.016Z,2.00
2019-04-28T12:33:37.005Z,2.30
2019-04-28T12:34:36.984Z,1.60
2019-04-28T12:35:47.008Z,1.70
2019-04-28T12:36:37.989Z,2.60
2019-04-28T12:37:36.944Z,1.60
2019-04-28T12:38:36.948Z,2.80
2019-04-28T12:39:37.004Z,1.60
2019-04-28T12:40:36.923Z,2.10
2019-04-28T12:41:36.954Z,2.80
2019-04-28T12:42:37.179Z,1.90
2019-04-28T12:43:36.888Z,1.50
2019-04-28T12:44:36.880Z,3.50
2019-04-28T12:45:37.261Z,2.70
2019-04-28T12:46:36.865Z,2.80
2019-04-28T12:47:36.850Z,3.50
2019-04-28T12:48:36.843Z,5.50
2019-04-28T12:49:36.825Z,5.50
2019-04-28T12:50:36.817Z,2.30
2019-04-28T12:51:36.818Z,2.00
2019-04-28T12:52:36.825Z,1.80
2019-04-28T12:53:36.777Z,2.80
2019-04-28T12:54:36.806Z,2.20
2019-04-28T12:55:36.800Z,2.00
2019-04-28T12:56:36.757Z,2.40
2019-04-28T12:57:36.809Z,2.00
2019-04-28T12:58:36.775Z,2.30
2019-04-28T12:59:36.762Z,2.50
2019-04-28T13:00:36.711Z,2.30
2019-04-28T13:01:36.772Z,3.60
2019-04-28T13:02:36.921Z,1.70
2019-04-28T13:03:37.787Z,2.40
2019-04-28T13:04:36.714Z,3.00
2019-04-28T13:05:36.665Z,3.00
2019-04-28T13:06:36.686Z,2.50